sensor_id;sensor_type;location;lat;lon;timestamp;P1;durP1;ratioP1;P2;durP2;ratioP2
18166;SDS011;9208;42.688;23.404;2022-11-15T00:00:23;70.47;;;47.90;;
18166;SDS011;9208;42.688;23.404;2022-11-15T00:02:49;71.67;;;48.57;;
18166;SDS011;9208;42.688;23.404;2022-11-15T00:05:14;69.40;;;48.17;;
18166;SDS011;9208;42.688;23.404;2022-11-15T00:07:40;73.57;;;49.17;;
18166;SDS011;9208;42.688;23.404;2022-11-15T00:10:05;75.07;;;49.70;;
18166;SDS011;9208;42.688;23.404;2022-11-15T00:12:31;65.17;;;45.77;;
18166;SDS011;9208;42.688;23.404;2022-11-15T00:14:56;64.20;;;46.00;;
18166;SDS011;9208;42.688;23.404;2022-11-15T00:17:25;63.63;;;45.47;;
18166;SDS011;9208;42.688;23.404;2022-11-15T00:19:50;59.43;;;43.10;;
18166;SDS011;9208;42.688;23.404;2022-11-15T00:22:15;57.83;;;41.30;;
18166;SDS011;9208;42.688;23.404;2022-11-15T00:24:41;55.20;;;40.63;;
18166;SDS011;9208;42.688;23.404;2022-11-15T00:27:07;54.83;;;41.80;;
18166;SDS011;9208;42.688;23.404;2022-11-15T00:29:33;51.73;;;41.00;;
18166;SDS011;9208;42.688;23.404;2022-11-15T00:31:58;59.87;;;42.40;;
18166;SDS011;9208;42.688;23.404;2022-11-15T00:34:24;59.63;;;43.50;;
18166;SDS011;9208;42.688;23.404;2022-11-15T00:36:49;58.03;;;41.53;;
18166;SDS011;9208;42.688;23.404;2022-11-15T00:39:15;57.03;;;42.63;;
18166;SDS011;9208;42.688;23.404;2022-11-15T00:41:40;55.40;;;41.40;;
18166;SDS011;9208;42.688;23.404;2022-11-15T00:44:06;58.53;;;41.47;;
18166;SDS011;9208;42.688;23.404;2022-11-15T00:46:31;55.47;;;40.30;;
18166;SDS011;9208;42.688;23.404;2022-11-15T00:48:56;57.23;;;41.30;;
18166;SDS011;9208;42.688;23.404;2022-11-15T00:51:22;56.80;;;41.70;;
18166;SDS011;9208;42.688;23.404;2022-11-15T00:53:47;60.57;;;42.27;;
18166;SDS011;9208;42.688;23.404;2022-11-15T00:56:13;57.47;;;42.20;;
18166;SDS011;9208;42.688;23.404;2022-11-15T00:58:41;58.03;;;40.83;;
18166;SDS011;9208;42.688;23.404;2022-11-15T01:01:10;52.17;;;40.47;;
18166;SDS011;9208;42.688;23.404;2022-11-15T01:03:38;53.47;;;40.30;;
18166;SDS011;9208;42.688;23.404;2022-11-15T01:06:05;53.90;;;39.50;;
18166;SDS011;9208;42.688;23.404;2022-11-15T01:08:31;53.57;;;40.07;;
18166;SDS011;9208;42.688;23.404;2022-11-15T01:11:04;54.70;;;40.13;;
18166;SDS011;9208;42.688;23.404;2022-11-15T01:13:32;58.20;;;40.87;;
18166;SDS011;9208;42.688;23.404;2022-11-15T01:15:59;54.33;;;39.83;;
18166;SDS011;9208;42.688;23.404;2022-11-15T01:18:31;56.93;;;40.40;;
18166;SDS011;9208;42.688;23.404;2022-11-15T01:20:56;57.00;;;39.87;;
18166;SDS011;9208;42.688;23.404;2022-11-15T01:23:21;57.50;;;40.33;;
18166;SDS011;9208;42.688;23.404;2022-11-15T01:25:47;55.63;;;41.90;;
18166;SDS011;9208;42.688;23.404;2022-11-15T01:28:12;61.90;;;42.87;;
18166;SDS011;9208;42.688;23.404;2022-11-15T01:30:38;55.07;;;41.17;;
18166;SDS011;9208;42.688;23.404;2022-11-15T01:33:03;57.60;;;42.10;;
18166;SDS011;9208;42.688;23.404;2022-11-15T01:35:28;60.50;;;44.20;;
18166;SDS011;9208;42.688;23.404;2022-11-15T01:37:54;58.03;;;44.77;;
18166;SDS011;9208;42.688;23.404;2022-11-15T01:40:19;62.20;;;45.27;;
18166;SDS011;9208;42.688;23.404;2022-11-15T01:42:45;58.87;;;43.13;;
18166;SDS011;9208;42.688;23.404;2022-11-15T01:45:14;57.67;;;42.53;;
18166;SDS011;9208;42.688;23.404;2022-11-15T01:47:41;59.00;;;43.33;;
18166;SDS011;9208;42.688;23.404;2022-11-15T01:50:24;63.70;;;44.70;;
18166;SDS011;9208;42.688;23.404;2022-11-15T01:52:53;55.50;;;40.73;;
18166;SDS011;9208;42.688;23.404;2022-11-15T01:55:20;58.53;;;42.53;;
18166;SDS011;9208;42.688;23.404;2022-11-15T01:57:49;53.93;;;41.20;;
18166;SDS011;9208;42.688;23.404;2022-11-15T02:00:18;54.83;;;38.20;;
18166;SDS011;9208;42.688;23.404;2022-11-15T02:02:44;65.70;;;43.00;;
18166;SDS011;9208;42.688;23.404;2022-11-15T02:05:09;65.97;;;43.60;;
18166;SDS011;9208;42.688;23.404;2022-11-15T02:07:35;63.87;;;42.53;;
18166;SDS011;9208;42.688;23.404;2022-11-15T02:10:06;66.00;;;44.60;;
18166;SDS011;9208;42.688;23.404;2022-11-15T02:12:34;59.97;;;44.97;;
18166;SDS011;9208;42.688;23.404;2022-11-15T02:15:00;66.23;;;46.67;;
18166;SDS011;9208;42.688;23.404;2022-11-15T02:18:10;68.30;;;44.60;;
18166;SDS011;9208;42.688;23.404;2022-11-15T02:31:33;72.57;;;41.07;;
18166;SDS011;9208;42.688;23.404;2022-11-15T02:45:11;57.43;;;37.77;;
18166;SDS011;9208;42.688;23.404;2022-11-15T02:47:43;59.13;;;38.57;;
18166;SDS011;9208;42.688;23.404;2022-11-15T02:50:10;54.77;;;38.07;;
18166;SDS011;9208;42.688;23.404;2022-11-15T02:52:38;55.53;;;39.00;;
18166;SDS011;9208;42.688;23.404;2022-11-15T02:55:04;51.80;;;35.20;;
18166;SDS011;9208;42.688;23.404;2022-11-15T02:57:34;52.27;;;37.10;;
18166;SDS011;9208;42.688;23.404;2022-11-15T03:00:05;56.40;;;38.13;;
18166;SDS011;9208;42.688;23.404;2022-11-15T03:02:46;60.57;;;38.40;;
18166;SDS011;9208;42.688;23.404;2022-11-15T03:05:36;54.43;;;37.27;;
18166;SDS011;9208;42.688;23.404;2022-11-15T03:08:22;56.57;;;38.00;;
18166;SDS011;9208;42.688;23.404;2022-11-15T03:10:56;57.90;;;38.37;;
18166;SDS011;9208;42.688;23.404;2022-11-15T03:13:27;58.37;;;38.23;;
18166;SDS011;9208;42.688;23.404;2022-11-15T03:16:09;51.53;;;36.23;;
18166;SDS011;9208;42.688;23.404;2022-11-15T03:18:42;50.50;;;36.47;;
18166;SDS011;9208;42.688;23.404;2022-11-15T03:21:10;52.07;;;35.87;;
18166;SDS011;9208;42.688;23.404;2022-11-15T03:23:39;52.80;;;35.20;;
18166;SDS011;9208;42.688;23.404;2022-11-15T03:26:23;50.50;;;35.53;;
18166;SDS011;9208;42.688;23.404;2022-11-15T03:28:52;48.00;;;34.30;;
18166;SDS011;9208;42.688;23.404;2022-11-15T03:31:22;50.97;;;34.73;;
18166;SDS011;9208;42.688;23.404;2022-11-15T03:34:28;46.70;;;33.47;;
18166;SDS011;9208;42.688;23.404;2022-11-15T03:36:58;45.17;;;32.33;;
18166;SDS011;9208;42.688;23.404;2022-11-15T03:39:24;49.83;;;33.23;;
18166;SDS011;9208;42.688;23.404;2022-11-15T03:44:52;43.03;;;32.43;;
18166;SDS011;9208;42.688;23.404;2022-11-15T03:47:25;45.97;;;32.30;;
18166;SDS011;9208;42.688;23.404;2022-11-15T03:49:57;48.23;;;33.23;;
18166;SDS011;9208;42.688;23.404;2022-11-15T03:52:30;47.03;;;32.87;;
18166;SDS011;9208;42.688;23.404;2022-11-15T03:54:58;44.30;;;31.53;;
18166;SDS011;9208;42.688;23.404;2022-11-15T03:57:26;45.03;;;31.70;;
18166;SDS011;9208;42.688;23.404;2022-11-15T03:59:52;42.17;;;31.13;;
18166;SDS011;9208;42.688;23.404;2022-11-15T04:02:17;47.13;;;33.00;;
18166;SDS011;9208;42.688;23.404;2022-11-15T04:04:43;48.47;;;33.23;;
18166;SDS011;9208;42.688;23.404;2022-11-15T04:07:09;41.63;;;32.00;;
18166;SDS011;9208;42.688;23.404;2022-11-15T04:09:36;43.40;;;31.87;;
18166;SDS011;9208;42.688;23.404;2022-11-15T04:12:21;45.23;;;32.70;;
18166;SDS011;9208;42.688;23.404;2022-11-15T04:14:55;43.60;;;33.47;;
18166;SDS011;9208;42.688;23.404;2022-11-15T04:17:41;44.07;;;34.10;;
18166;SDS011;9208;42.688;23.404;2022-11-15T04:20:10;45.30;;;34.40;;
18166;SDS011;9208;42.688;23.404;2022-11-15T04:22:59;47.60;;;33.97;;
18166;SDS011;9208;42.688;23.404;2022-11-15T04:25:45;46.33;;;34.80;;
18166;SDS011;9208;42.688;23.404;2022-11-15T04:28:14;48.40;;;33.30;;
18166;SDS011;9208;42.688;23.404;2022-11-15T04:30:39;46.77;;;33.43;;
18166;SDS011;9208;42.688;23.404;2022-11-15T04:33:05;46.23;;;33.83;;
18166;SDS011;9208;42.688;23.404;2022-11-15T04:35:30;47.40;;;34.10;;
18166;SDS011;9208;42.688;23.404;2022-11-15T04:37:56;48.53;;;35.63;;
18166;SDS011;9208;42.688;23.404;2022-11-15T04:40:22;48.27;;;35.50;;
18166;SDS011;9208;42.688;23.404;2022-11-15T04:42:48;50.23;;;35.03;;
18166;SDS011;9208;42.688;23.404;2022-11-15T04:45:13;50.23;;;35.73;;
18166;SDS011;9208;42.688;23.404;2022-11-15T04:47:39;50.97;;;36.13;;
18166;SDS011;9208;42.688;23.404;2022-11-15T04:50:04;50.93;;;36.13;;
18166;SDS011;9208;42.688;23.404;2022-11-15T04:52:30;47.30;;;35.37;;
18166;SDS011;9208;42.688;23.404;2022-11-15T04:54:55;50.33;;;36.40;;
18166;SDS011;9208;42.688;23.404;2022-11-15T04:57:21;54.93;;;37.63;;
18166;SDS011;9208;42.688;23.404;2022-11-15T04:59:46;49.37;;;34.73;;
18166;SDS011;9208;42.688;23.404;2022-11-15T05:02:12;52.67;;;35.67;;
18166;SDS011;9208;42.688;23.404;2022-11-15T05:04:37;53.83;;;35.70;;
18166;SDS011;9208;42.688;23.404;2022-11-15T05:07:02;50.80;;;34.87;;
18166;SDS011;9208;42.688;23.404;2022-11-15T05:09:31;53.30;;;36.43;;
18166;SDS011;9208;42.688;23.404;2022-11-15T05:11:56;58.73;;;38.37;;
18166;SDS011;9208;42.688;23.404;2022-11-15T05:14:22;55.07;;;37.07;;
18166;SDS011;9208;42.688;23.404;2022-11-15T05:16:47;56.20;;;36.80;;
18166;SDS011;9208;42.688;23.404;2022-11-15T05:19:13;56.83;;;39.27;;
18166;SDS011;9208;42.688;23.404;2022-11-15T05:21:38;57.73;;;38.27;;
18166;SDS011;9208;42.688;23.404;2022-11-15T05:24:04;50.77;;;35.50;;
18166;SDS011;9208;42.688;23.404;2022-11-15T05:26:30;53.93;;;35.17;;
18166;SDS011;9208;42.688;23.404;2022-11-15T05:28:56;54.03;;;35.47;;
18166;SDS011;9208;42.688;23.404;2022-11-15T05:31:23;56.17;;;36.57;;
18166;SDS011;9208;42.688;23.404;2022-11-15T05:33:49;56.17;;;36.93;;
18166;SDS011;9208;42.688;23.404;2022-11-15T05:36:29;57.13;;;37.10;;
18166;SDS011;9208;42.688;23.404;2022-11-15T05:38:58;56.33;;;36.00;;
18166;SDS011;9208;42.688;23.404;2022-11-15T05:41:25;52.63;;;34.13;;
18166;SDS011;9208;42.688;23.404;2022-11-15T05:43:55;49.23;;;33.07;;
18166;SDS011;9208;42.688;23.404;2022-11-15T05:46:22;55.27;;;31.53;;
18166;SDS011;9208;42.688;23.404;2022-11-15T05:48:48;48.60;;;30.83;;
18166;SDS011;9208;42.688;23.404;2022-11-15T05:51:16;49.77;;;29.43;;
18166;SDS011;9208;42.688;23.404;2022-11-15T05:53:45;49.90;;;28.93;;
18166;SDS011;9208;42.688;23.404;2022-11-15T05:56:11;49.77;;;30.67;;
18166;SDS011;9208;42.688;23.404;2022-11-15T05:58:37;45.73;;;29.47;;
18166;SDS011;9208;42.688;23.404;2022-11-15T06:01:03;50.13;;;30.43;;
18166;SDS011;9208;42.688;23.404;2022-11-15T06:03:29;47.00;;;30.03;;
18166;SDS011;9208;42.688;23.404;2022-11-15T06:05:56;46.87;;;28.70;;
18166;SDS011;9208;42.688;23.404;2022-11-15T06:08:21;44.33;;;29.17;;
18166;SDS011;9208;42.688;23.404;2022-11-15T06:10:47;61.73;;;38.13;;
18166;SDS011;9208;42.688;23.404;2022-11-15T06:13:12;52.37;;;30.70;;
18166;SDS011;9208;42.688;23.404;2022-11-15T06:15:38;49.60;;;29.47;;
18166;SDS011;9208;42.688;23.404;2022-11-15T06:18:03;49.03;;;29.63;;
18166;SDS011;9208;42.688;23.404;2022-11-15T06:20:29;51.73;;;31.40;;
18166;SDS011;9208;42.688;23.404;2022-11-15T06:22:58;48.73;;;31.60;;
18166;SDS011;9208;42.688;23.404;2022-11-15T06:25:24;53.90;;;31.07;;
18166;SDS011;9208;42.688;23.404;2022-11-15T06:27:57;47.57;;;29.80;;
18166;SDS011;9208;42.688;23.404;2022-11-15T06:30:24;51.70;;;30.87;;
18166;SDS011;9208;42.688;23.404;2022-11-15T06:32:51;58.07;;;37.00;;
18166;SDS011;9208;42.688;23.404;2022-11-15T06:35:17;44.67;;;27.33;;
18166;SDS011;9208;42.688;23.404;2022-11-15T06:37:51;89.43;;;32.37;;
18166;SDS011;9208;42.688;23.404;2022-11-15T06:40:16;43.53;;;30.85;;
18166;SDS011;9208;42.688;23.404;2022-11-15T06:42:42;43.33;;;26.83;;
18166;SDS011;9208;42.688;23.404;2022-11-15T06:45:08;40.40;;;25.13;;
18166;SDS011;9208;42.688;23.404;2022-11-15T06:47:33;39.13;;;24.73;;
18166;SDS011;9208;42.688;23.404;2022-11-15T06:49:59;37.97;;;23.57;;
18166;SDS011;9208;42.688;23.404;2022-11-15T06:52:24;38.83;;;24.50;;
18166;SDS011;9208;42.688;23.404;2022-11-15T06:54:49;40.07;;;23.83;;
18166;SDS011;9208;42.688;23.404;2022-11-15T06:57:15;37.97;;;23.47;;
18166;SDS011;9208;42.688;23.404;2022-11-15T06:59:40;43.40;;;24.57;;
18166;SDS011;9208;42.688;23.404;2022-11-15T07:02:06;43.70;;;25.30;;
18166;SDS011;9208;42.688;23.404;2022-11-15T07:04:37;44.33;;;25.50;;
18166;SDS011;9208;42.688;23.404;2022-11-15T07:07:02;41.37;;;24.73;;
18166;SDS011;9208;42.688;23.404;2022-11-15T07:09:27;41.73;;;24.23;;
18166;SDS011;9208;42.688;23.404;2022-11-15T07:11:53;40.07;;;24.70;;
18166;SDS011;9208;42.688;23.404;2022-11-15T07:14:18;45.17;;;26.50;;
18166;SDS011;9208;42.688;23.404;2022-11-15T07:16:44;44.03;;;27.60;;
18166;SDS011;9208;42.688;23.404;2022-11-15T07:19:09;51.93;;;30.50;;
18166;SDS011;9208;42.688;23.404;2022-11-15T07:21:35;52.87;;;32.10;;
18166;SDS011;9208;42.688;23.404;2022-11-15T07:24:01;52.40;;;32.17;;
18166;SDS011;9208;42.688;23.404;2022-11-15T07:26:26;61.97;;;36.73;;
18166;SDS011;9208;42.688;23.404;2022-11-15T07:28:51;54.97;;;32.27;;
18166;SDS011;9208;42.688;23.404;2022-11-15T07:31:17;54.33;;;34.10;;
18166;SDS011;9208;42.688;23.404;2022-11-15T07:33:42;59.87;;;36.37;;
18166;SDS011;9208;42.688;23.404;2022-11-15T07:36:08;58.03;;;33.23;;
18166;SDS011;9208;42.688;23.404;2022-11-15T07:38:34;60.00;;;35.73;;
18166;SDS011;9208;42.688;23.404;2022-11-15T07:41:01;67.13;;;37.30;;
18166;SDS011;9208;42.688;23.404;2022-11-15T07:43:28;57.53;;;36.27;;
18166;SDS011;9208;42.688;23.404;2022-11-15T07:45:54;45.43;;;29.07;;
18166;SDS011;9208;42.688;23.404;2022-11-15T07:48:20;39.50;;;25.97;;
18166;SDS011;9208;42.688;23.404;2022-11-15T07:50:47;40.07;;;25.47;;
18166;SDS011;9208;42.688;23.404;2022-11-15T07:53:12;37.90;;;25.47;;
18166;SDS011;9208;42.688;23.404;2022-11-15T07:55:39;42.87;;;27.80;;
18166;SDS011;9208;42.688;23.404;2022-11-15T07:58:08;45.80;;;29.37;;
18166;SDS011;9208;42.688;23.404;2022-11-15T08:00:35;50.37;;;31.97;;
18166;SDS011;9208;42.688;23.404;2022-11-15T08:03:11;50.33;;;28.80;;
18166;SDS011;9208;42.688;23.404;2022-11-15T08:05:38;43.60;;;28.17;;
18166;SDS011;9208;42.688;23.404;2022-11-15T08:08:05;47.20;;;30.13;;
18166;SDS011;9208;42.688;23.404;2022-11-15T08:10:31;46.10;;;29.70;;
18166;SDS011;9208;42.688;23.404;2022-11-15T08:12:57;47.23;;;28.93;;
18166;SDS011;9208;42.688;23.404;2022-11-15T08:15:29;40.17;;;26.00;;
18166;SDS011;9208;42.688;23.404;2022-11-15T08:17:57;41.10;;;26.50;;
18166;SDS011;9208;42.688;23.404;2022-11-15T08:20:24;46.83;;;28.60;;
18166;SDS011;9208;42.688;23.404;2022-11-15T08:22:51;52.93;;;30.63;;
18166;SDS011;9208;42.688;23.404;2022-11-15T08:25:16;52.00;;;30.73;;
18166;SDS011;9208;42.688;23.404;2022-11-15T08:27:42;49.80;;;30.63;;
18166;SDS011;9208;42.688;23.404;2022-11-15T08:30:08;47.93;;;30.30;;
18166;SDS011;9208;42.688;23.404;2022-11-15T08:32:34;43.87;;;28.77;;
18166;SDS011;9208;42.688;23.404;2022-11-15T08:34:59;49.67;;;30.87;;
18166;SDS011;9208;42.688;23.404;2022-11-15T08:37:25;51.10;;;31.60;;
18166;SDS011;9208;42.688;23.404;2022-11-15T08:39:50;53.60;;;32.47;;
18166;SDS011;9208;42.688;23.404;2022-11-15T08:42:15;51.00;;;32.03;;
18166;SDS011;9208;42.688;23.404;2022-11-15T08:44:41;49.00;;;30.67;;
18166;SDS011;9208;42.688;23.404;2022-11-15T08:47:07;47.37;;;29.67;;
18166;SDS011;9208;42.688;23.404;2022-11-15T08:49:33;44.53;;;28.57;;
18166;SDS011;9208;42.688;23.404;2022-11-15T08:51:58;42.60;;;28.50;;
18166;SDS011;9208;42.688;23.404;2022-11-15T08:54:23;48.13;;;29.20;;
18166;SDS011;9208;42.688;23.404;2022-11-15T08:56:49;51.33;;;29.87;;
18166;SDS011;9208;42.688;23.404;2022-11-15T08:59:14;50.10;;;30.93;;
18166;SDS011;9208;42.688;23.404;2022-11-15T09:01:40;51.27;;;31.67;;
18166;SDS011;9208;42.688;23.404;2022-11-15T09:04:05;51.80;;;33.53;;
18166;SDS011;9208;42.688;23.404;2022-11-15T09:06:30;57.67;;;32.93;;
18166;SDS011;9208;42.688;23.404;2022-11-15T09:08:56;51.43;;;31.83;;
18166;SDS011;9208;42.688;23.404;2022-11-15T09:11:22;52.40;;;30.10;;
18166;SDS011;9208;42.688;23.404;2022-11-15T09:13:48;51.10;;;32.23;;
18166;SDS011;9208;42.688;23.404;2022-11-15T09:16:14;55.83;;;33.40;;
18166;SDS011;9208;42.688;23.404;2022-11-15T09:18:40;54.97;;;34.03;;
18166;SDS011;9208;42.688;23.404;2022-11-15T09:21:06;56.30;;;33.33;;
18166;SDS011;9208;42.688;23.404;2022-11-15T09:23:32;53.90;;;33.47;;
18166;SDS011;9208;42.688;23.404;2022-11-15T09:25:58;55.40;;;33.27;;
18166;SDS011;9208;42.688;23.404;2022-11-15T09:28:26;53.50;;;34.23;;
18166;SDS011;9208;42.688;23.404;2022-11-15T09:31:00;48.90;;;32.27;;
18166;SDS011;9208;42.688;23.404;2022-11-15T09:33:28;54.77;;;33.63;;
18166;SDS011;9208;42.688;23.404;2022-11-15T09:35:53;53.53;;;32.60;;
18166;SDS011;9208;42.688;23.404;2022-11-15T09:38:19;50.43;;;32.57;;
18166;SDS011;9208;42.688;23.404;2022-11-15T09:40:45;47.10;;;31.03;;
18166;SDS011;9208;42.688;23.404;2022-11-15T09:43:34;46.83;;;29.53;;
18166;SDS011;9208;42.688;23.404;2022-11-15T09:49:09;52.77;;;33.57;;
18166;SDS011;9208;42.688;23.404;2022-11-15T09:51:39;53.90;;;33.93;;
18166;SDS011;9208;42.688;23.404;2022-11-15T09:56:52;42.87;;;28.57;;
18166;SDS011;9208;42.688;23.404;2022-11-15T10:04:33;44.87;;;29.00;;
18166;SDS011;9208;42.688;23.404;2022-11-15T10:07:18;44.50;;;29.23;;
18166;SDS011;9208;42.688;23.404;2022-11-15T10:12:26;49.27;;;31.97;;
18166;SDS011;9208;42.688;23.404;2022-11-15T10:15:00;47.20;;;31.67;;
18166;SDS011;9208;42.688;23.404;2022-11-15T10:22:53;48.23;;;32.27;;
18166;SDS011;9208;42.688;23.404;2022-11-15T10:25:23;48.23;;;32.33;;
18166;SDS011;9208;42.688;23.404;2022-11-15T10:27:54;43.83;;;30.53;;
18166;SDS011;9208;42.688;23.404;2022-11-15T10:30:33;42.50;;;29.50;;
18166;SDS011;9208;42.688;23.404;2022-11-15T10:33:09;50.37;;;29.90;;
18166;SDS011;9208;42.688;23.404;2022-11-15T10:35:38;46.97;;;30.70;;
18166;SDS011;9208;42.688;23.404;2022-11-15T10:38:05;42.97;;;30.30;;
18166;SDS011;9208;42.688;23.404;2022-11-15T10:40:32;46.73;;;31.00;;
18166;SDS011;9208;42.688;23.404;2022-11-15T10:43:05;52.47;;;32.07;;
18166;SDS011;9208;42.688;23.404;2022-11-15T10:45:51;45.80;;;32.57;;
18166;SDS011;9208;42.688;23.404;2022-11-15T10:50:43;42.63;;;28.70;;
18166;SDS011;9208;42.688;23.404;2022-11-15T10:53:21;41.57;;;28.23;;
18166;SDS011;9208;42.688;23.404;2022-11-15T10:56:00;39.77;;;28.00;;
18166;SDS011;9208;42.688;23.404;2022-11-15T10:58:33;42.37;;;28.57;;
18166;SDS011;9208;42.688;23.404;2022-11-15T11:04:00;39.77;;;28.70;;
18166;SDS011;9208;42.688;23.404;2022-11-15T11:06:28;36.57;;;26.07;;
18166;SDS011;9208;42.688;23.404;2022-11-15T11:11:43;35.30;;;25.50;;
18166;SDS011;9208;42.688;23.404;2022-11-15T11:14:43;39.33;;;26.83;;
18166;SDS011;9208;42.688;23.404;2022-11-15T11:17:11;40.43;;;26.97;;
18166;SDS011;9208;42.688;23.404;2022-11-15T11:22:28;37.50;;;25.23;;
18166;SDS011;9208;42.688;23.404;2022-11-15T11:30:51;38.33;;;26.07;;
18166;SDS011;9208;42.688;23.404;2022-11-15T11:33:32;35.83;;;25.77;;
18166;SDS011;9208;42.688;23.404;2022-11-15T11:46:48;36.77;;;27.30;;
18166;SDS011;9208;42.688;23.404;2022-11-15T11:49:42;44.33;;;28.80;;
18166;SDS011;9208;42.688;23.404;2022-11-15T11:52:10;42.83;;;28.63;;
18166;SDS011;9208;42.688;23.404;2022-11-15T11:55:01;39.63;;;28.10;;
18166;SDS011;9208;42.688;23.404;2022-11-15T11:57:40;37.80;;;28.30;;
18166;SDS011;9208;42.688;23.404;2022-11-15T12:00:24;42.10;;;28.93;;
18166;SDS011;9208;42.688;23.404;2022-11-15T12:05:38;42.33;;;30.60;;
18166;SDS011;9208;42.688;23.404;2022-11-15T12:10:48;40.80;;;30.77;;
18166;SDS011;9208;42.688;23.404;2022-11-15T12:13:20;46.63;;;32.50;;
18166;SDS011;9208;42.688;23.404;2022-11-15T12:15:59;46.57;;;30.73;;
18166;SDS011;9208;42.688;23.404;2022-11-15T12:18:32;49.13;;;30.87;;
18166;SDS011;9208;42.688;23.404;2022-11-15T12:21:00;42.13;;;30.17;;
18166;SDS011;9208;42.688;23.404;2022-11-15T12:23:32;41.07;;;29.73;;
18166;SDS011;9208;42.688;23.404;2022-11-15T12:26:07;46.10;;;32.17;;
18166;SDS011;9208;42.688;23.404;2022-11-15T12:31:16;44.60;;;30.73;;
18166;SDS011;9208;42.688;23.404;2022-11-15T12:33:48;47.73;;;32.83;;
18166;SDS011;9208;42.688;23.404;2022-11-15T12:38:52;45.73;;;31.30;;
18166;SDS011;9208;42.688;23.404;2022-11-15T12:41:26;47.53;;;33.57;;
18166;SDS011;9208;42.688;23.404;2022-11-15T12:43:52;46.33;;;31.70;;
18166;SDS011;9208;42.688;23.404;2022-11-15T12:48:53;50.73;;;33.43;;
18166;SDS011;9208;42.688;23.404;2022-11-15T12:51:22;48.43;;;32.63;;
18166;SDS011;9208;42.688;23.404;2022-11-15T13:04:55;46.90;;;31.80;;
18166;SDS011;9208;42.688;23.404;2022-11-15T13:17:56;43.47;;;29.90;;
18166;SDS011;9208;42.688;23.404;2022-11-15T13:20:29;38.23;;;28.33;;
18166;SDS011;9208;42.688;23.404;2022-11-15T13:30:41;42.67;;;30.07;;
18166;SDS011;9208;42.688;23.404;2022-11-15T13:35:45;42.77;;;30.50;;
18166;SDS011;9208;42.688;23.404;2022-11-15T13:41:17;47.30;;;32.33;;
18166;SDS011;9208;42.688;23.404;2022-11-15T13:43:48;49.03;;;32.63;;
18166;SDS011;9208;42.688;23.404;2022-11-15T13:48:40;49.67;;;32.20;;
18166;SDS011;9208;42.688;23.404;2022-11-15T13:51:53;48.37;;;34.63;;
18166;SDS011;9208;42.688;23.404;2022-11-15T13:54:17;46.70;;;32.63;;
18166;SDS011;9208;42.688;23.404;2022-11-15T13:57:10;49.63;;;33.90;;
18166;SDS011;9208;42.688;23.404;2022-11-15T14:02:20;49.50;;;32.93;;
18166;SDS011;9208;42.688;23.404;2022-11-15T14:04:52;48.77;;;33.60;;
18166;SDS011;9208;42.688;23.404;2022-11-15T14:07:21;55.13;;;34.97;;
18166;SDS011;9208;42.688;23.404;2022-11-15T14:09:48;50.43;;;34.73;;
18166;SDS011;9208;42.688;23.404;2022-11-15T14:14:55;48.83;;;35.70;;
18166;SDS011;9208;42.688;23.404;2022-11-15T14:19:53;48.87;;;34.53;;
18166;SDS011;9208;42.688;23.404;2022-11-15T14:24:47;49.17;;;33.23;;
18166;SDS011;9208;42.688;23.404;2022-11-15T14:27:31;45.90;;;33.00;;
18166;SDS011;9208;42.688;23.404;2022-11-15T14:29:57;46.47;;;31.83;;
18166;SDS011;9208;42.688;23.404;2022-11-15T14:35:10;51.57;;;31.90;;
18166;SDS011;9208;42.688;23.404;2022-11-15T14:37:42;42.93;;;31.23;;
18166;SDS011;9208;42.688;23.404;2022-11-15T14:40:08;41.27;;;29.70;;
18166;SDS011;9208;42.688;23.404;2022-11-15T14:42:37;43.03;;;30.63;;
18166;SDS011;9208;42.688;23.404;2022-11-15T14:45:02;43.57;;;31.17;;
18166;SDS011;9208;42.688;23.404;2022-11-15T14:47:28;44.17;;;31.03;;
18166;SDS011;9208;42.688;23.404;2022-11-15T14:49:53;44.63;;;30.07;;
18166;SDS011;9208;42.688;23.404;2022-11-15T14:52:28;41.43;;;28.80;;
18166;SDS011;9208;42.688;23.404;2022-11-15T14:54:58;42.07;;;29.27;;
18166;SDS011;9208;42.688;23.404;2022-11-15T14:57:41;44.07;;;30.83;;
18166;SDS011;9208;42.688;23.404;2022-11-15T15:00:07;43.40;;;30.60;;
18166;SDS011;9208;42.688;23.404;2022-11-15T15:02:34;42.13;;;32.07;;
18166;SDS011;9208;42.688;23.404;2022-11-15T15:05:00;44.23;;;31.67;;
18166;SDS011;9208;42.688;23.404;2022-11-15T15:07:28;45.73;;;33.43;;
18166;SDS011;9208;42.688;23.404;2022-11-15T15:09:53;48.37;;;34.07;;
18166;SDS011;9208;42.688;23.404;2022-11-15T15:12:20;51.93;;;35.77;;
18166;SDS011;9208;42.688;23.404;2022-11-15T15:14:47;47.27;;;33.73;;
18166;SDS011;9208;42.688;23.404;2022-11-15T15:17:14;46.67;;;33.50;;
18166;SDS011;9208;42.688;23.404;2022-11-15T15:19:42;57.23;;;39.13;;
18166;SDS011;9208;42.688;23.404;2022-11-15T15:22:13;49.40;;;35.37;;
18166;SDS011;9208;42.688;23.404;2022-11-15T15:24:41;44.67;;;33.73;;
18166;SDS011;9208;42.688;23.404;2022-11-15T15:27:08;45.93;;;33.23;;
18166;SDS011;9208;42.688;23.404;2022-11-15T15:29:34;50.17;;;35.43;;
18166;SDS011;9208;42.688;23.404;2022-11-15T15:31:59;49.30;;;34.67;;
18166;SDS011;9208;42.688;23.404;2022-11-15T15:34:25;48.43;;;35.00;;
18166;SDS011;9208;42.688;23.404;2022-11-15T15:37:06;51.63;;;34.53;;
18166;SDS011;9208;42.688;23.404;2022-11-15T15:39:37;51.27;;;34.73;;
18166;SDS011;9208;42.688;23.404;2022-11-15T15:42:03;50.07;;;34.93;;
18166;SDS011;9208;42.688;23.404;2022-11-15T15:44:28;43.67;;;34.07;;
18166;SDS011;9208;42.688;23.404;2022-11-15T15:46:54;49.60;;;33.50;;
18166;SDS011;9208;42.688;23.404;2022-11-15T15:49:19;48.00;;;33.67;;
18166;SDS011;9208;42.688;23.404;2022-11-15T15:51:45;49.83;;;34.83;;
18166;SDS011;9208;42.688;23.404;2022-11-15T15:54:10;47.47;;;33.57;;
18166;SDS011;9208;42.688;23.404;2022-11-15T15:56:36;53.40;;;36.83;;
18166;SDS011;9208;42.688;23.404;2022-11-15T15:59:01;49.53;;;34.57;;
18166;SDS011;9208;42.688;23.404;2022-11-15T16:01:26;47.47;;;34.40;;
18166;SDS011;9208;42.688;23.404;2022-11-15T16:03:52;63.67;;;37.70;;
18166;SDS011;9208;42.688;23.404;2022-11-15T16:06:36;60.90;;;37.77;;
18166;SDS011;9208;42.688;23.404;2022-11-15T16:09:04;56.13;;;37.07;;
18166;SDS011;9208;42.688;23.404;2022-11-15T16:11:30;60.63;;;37.27;;
18166;SDS011;9208;42.688;23.404;2022-11-15T16:13:56;53.53;;;35.87;;
18166;SDS011;9208;42.688;23.404;2022-11-15T16:16:21;54.50;;;38.17;;
18166;SDS011;9208;42.688;23.404;2022-11-15T16:18:47;54.80;;;37.83;;
18166;SDS011;9208;42.688;23.404;2022-11-15T16:21:12;54.63;;;36.53;;
18166;SDS011;9208;42.688;23.404;2022-11-15T16:23:38;58.80;;;38.67;;
18166;SDS011;9208;42.688;23.404;2022-11-15T16:26:09;53.90;;;36.83;;
18166;SDS011;9208;42.688;23.404;2022-11-15T16:28:59;54.50;;;37.97;;
18166;SDS011;9208;42.688;23.404;2022-11-15T16:31:25;53.27;;;37.70;;
18166;SDS011;9208;42.688;23.404;2022-11-15T16:33:50;55.40;;;39.70;;
18166;SDS011;9208;42.688;23.404;2022-11-15T16:36:22;54.33;;;38.03;;
18166;SDS011;9208;42.688;23.404;2022-11-15T16:38:52;52.17;;;38.17;;
18166;SDS011;9208;42.688;23.404;2022-11-15T16:41:18;57.17;;;38.77;;
18166;SDS011;9208;42.688;23.404;2022-11-15T16:43:49;54.63;;;37.23;;
18166;SDS011;9208;42.688;23.404;2022-11-15T16:46:19;52.40;;;36.40;;